TimeEST,TemperatureF,Dew PointF,Humidity,Sea Level PressureIn,VisibilityMPH,Wind Direction,Wind SpeedMPH,Gust SpeedMPH,PrecipitationIn,Events,Conditions,WindDirDegrees,DateUTC
12:53 AM,64.0,54.0,70,30.16,10.0,Calm,Calm,-,N/A,,Clear,0,2012-11-27 05:53:00
1:53 AM,64.0,57.9,80,30.16,10.0,NE,3.5,-,N/A,,Clear,50,2012-11-27 06:53:00
2:53 AM,64.0,62.1,93,30.15,9.0,SE,4.6,-,N/A,,Scattered Clouds,130,2012-11-27 07:53:00
3:53 AM,63.0,61.0,93,30.14,8.0,South,5.8,-,N/A,,Clear,180,2012-11-27 08:53:00
4:53 AM,63.0,60.1,90,30.14,8.0,South,4.6,-,N/A,,Clear,180,2012-11-27 09:53:00
5:53 AM,63.0,60.1,90,30.14,9.0,SE,3.5,-,N/A,,Clear,140,2012-11-27 10:53:00
6:53 AM,63.0,60.1,90,30.14,9.0,SE,3.5,-,N/A,,Clear,140,2012-11-27 11:53:00
7:53 AM,64.0,61.0,90,30.16,10.0,Calm,Calm,-,N/A,,Clear,0,2012-11-27 12:53:00
8:53 AM,64.9,62.1,90,30.17,9.0,SSE,3.5,-,N/A,,Clear,160,2012-11-27 13:53:00
9:53 AM,66.9,62.1,84,30.18,10.0,SSE,3.5,-,N/A,,Clear,160,2012-11-27 14:53:00
10:53 AM,71.1,64.0,78,30.18,10.0,Calm,Calm,-,N/A,,Partly Cloudy,0,2012-11-27 15:53:00
11:53 AM,73.9,64.0,71,30.16,10.0,SSE,3.5,-,N/A,,Unknown,150,2012-11-27 16:53:00
12:53 PM,75.9,64.0,67,30.12,10.0,South,4.6,-,N/A,,Clear,170,2012-11-27 17:53:00
1:53 PM,75.9,62.1,62,30.11,10.0,WSW,9.2,-,N/A,,Partly Cloudy,250,2012-11-27 18:53:00
2:53 PM,75.9,63.0,64,30.09,10.0,SW,12.7,18.4,N/A,,Clear,220,2012-11-27 19:53:00
3:53 PM,73.9,64.9,73,30.09,10.0,SW,9.2,-,N/A,,Clear,230,2012-11-27 20:53:00
4:53 PM,73.0,64.9,76,30.10,10.0,WSW,9.2,-,N/A,,Clear,240,2012-11-27 21:53:00
5:53 PM,71.1,66.0,84,30.11,10.0,WSW,5.8,-,N/A,,Mostly Cloudy,240,2012-11-27 22:53:00
6:53 PM,70.0,66.0,87,30.11,10.0,WSW,4.6,-,N/A,,Overcast,240,2012-11-27 23:53:00
7:53 PM,70.0,66.0,87,30.13,10.0,WSW,3.5,-,N/A,,Scattered Clouds,250,2012-11-28 00:53:00
8:53 PM,68.0,66.0,93,30.12,9.0,SSW,4.6,-,N/A,,Clear,210,2012-11-28 01:53:00
9:53 PM,68.0,66.0,93,30.12,8.0,WSW,3.5,-,N/A,,Clear,250,2012-11-28 02:53:00
10:53 PM,66.9,66.0,97,30.12,6.0,WSW,3.5,-,N/A,,Clear,250,2012-11-28 03:53:00
11:53 PM,66.9,66.0,97,30.12,4.0,WSW,3.5,-,N/A,,Clear,250,2012-11-28 04:53:00